sensor_id;sensor_type;location;lat;lon;timestamp;temperature;humidity
11784;DHT22;5949;40.386;18.150;2022-08-21T00:00:22;24.80;99.90
11784;DHT22;5949;40.386;18.150;2022-08-21T00:02:52;25.10;99.90
11784;DHT22;5949;40.386;18.150;2022-08-21T00:05:21;25.50;99.90
11784;DHT22;5949;40.386;18.150;2022-08-21T00:07:48;25.60;99.90
11784;DHT22;5949;40.386;18.150;2022-08-21T00:10:17;25.60;99.90
11784;DHT22;5949;40.386;18.150;2022-08-21T00:12:44;25.70;99.90
11784;DHT22;5949;40.386;18.150;2022-08-21T00:15:15;25.90;99.90
11784;DHT22;5949;40.386;18.150;2022-08-21T00:17:45;25.80;99.90
11784;DHT22;5949;40.386;18.150;2022-08-21T00:20:15;25.80;99.90
11784;DHT22;5949;40.386;18.150;2022-08-21T00:22:43;25.90;99.90
11784;DHT22;5949;40.386;18.150;2022-08-21T00:25:12;26.00;99.90
11784;DHT22;5949;40.386;18.150;2022-08-21T00:27:40;26.00;99.90
11784;DHT22;5949;40.386;18.150;2022-08-21T00:30:11;25.60;99.90
11784;DHT22;5949;40.386;18.150;2022-08-21T00:32:40;25.50;99.90
11784;DHT22;5949;40.386;18.150;2022-08-21T00:35:13;25.30;99.90
11784;DHT22;5949;40.386;18.150;2022-08-21T00:37:41;25.20;99.90
11784;DHT22;5949;40.386;18.150;2022-08-21T00:40:13;25.40;99.90
11784;DHT22;5949;40.386;18.150;2022-08-21T00:42:41;25.40;99.90
11784;DHT22;5949;40.386;18.150;2022-08-21T00:45:10;25.50;99.90
11784;DHT22;5949;40.386;18.150;2022-08-21T00:47:38;25.60;99.90
11784;DHT22;5949;40.386;18.150;2022-08-21T00:50:09;25.70;99.90
11784;DHT22;5949;40.386;18.150;2022-08-21T00:52:38;25.80;99.90
11784;DHT22;5949;40.386;18.150;2022-08-21T00:55:09;25.80;99.90
11784;DHT22;5949;40.386;18.150;2022-08-21T00:57:41;25.90;99.90
11784;DHT22;5949;40.386;18.150;2022-08-21T01:00:13;25.80;99.90
11784;DHT22;5949;40.386;18.150;2022-08-21T01:02:42;25.80;99.90
11784;DHT22;5949;40.386;18.150;2022-08-21T01:05:12;25.90;99.90
11784;DHT22;5949;40.386;18.150;2022-08-21T01:07:40;25.90;99.90
11784;DHT22;5949;40.386;18.150;2022-08-21T01:10:08;25.70;99.90
11784;DHT22;5949;40.386;18.150;2022-08-21T01:12:37;25.50;99.90
11784;DHT22;5949;40.386;18.150;2022-08-21T01:15:06;25.50;99.90
11784;DHT22;5949;40.386;18.150;2022-08-21T01:17:36;25.50;99.90
11784;DHT22;5949;40.386;18.150;2022-08-21T01:20:06;25.60;99.90
11784;DHT22;5949;40.386;18.150;2022-08-21T01:22:36;25.70;99.90
11784;DHT22;5949;40.386;18.150;2022-08-21T01:25:05;25.60;99.90
11784;DHT22;5949;40.386;18.150;2022-08-21T01:27:33;25.50;99.90
11784;DHT22;5949;40.386;18.150;2022-08-21T01:30:09;25.30;99.90
11784;DHT22;5949;40.386;18.150;2022-08-21T01:32:37;25.00;99.90
11784;DHT22;5949;40.386;18.150;2022-08-21T01:35:05;24.90;99.90
11784;DHT22;5949;40.386;18.150;2022-08-21T01:37:33;24.70;99.90
11784;DHT22;5949;40.386;18.150;2022-08-21T01:40:04;24.80;99.90
11784;DHT22;5949;40.386;18.150;2022-08-21T01:42:32;24.60;99.90
11784;DHT22;5949;40.386;18.150;2022-08-21T01:45:00;24.60;99.90
11784;DHT22;5949;40.386;18.150;2022-08-21T01:47:27;24.70;99.90
11784;DHT22;5949;40.386;18.150;2022-08-21T01:49:55;25.00;99.90
11784;DHT22;5949;40.386;18.150;2022-08-21T01:52:22;24.80;99.90
11784;DHT22;5949;40.386;18.150;2022-08-21T01:54:50;25.00;99.90
11784;DHT22;5949;40.386;18.150;2022-08-21T01:57:19;24.80;99.90
11784;DHT22;5949;40.386;18.150;2022-08-21T01:59:47;24.90;99.90
11784;DHT22;5949;40.386;18.150;2022-08-21T02:02:14;24.80;99.90
11784;DHT22;5949;40.386;18.150;2022-08-21T02:04:42;24.90;99.90
11784;DHT22;5949;40.386;18.150;2022-08-21T02:07:09;24.80;99.90
11784;DHT22;5949;40.386;18.150;2022-08-21T02:09:37;25.00;99.90
11784;DHT22;5949;40.386;18.150;2022-08-21T02:12:05;24.80;99.90
11784;DHT22;5949;40.386;18.150;2022-08-21T02:14:34;24.80;99.90
11784;DHT22;5949;40.386;18.150;2022-08-21T02:17:02;25.10;99.90
11784;DHT22;5949;40.386;18.150;2022-08-21T02:19:29;24.90;99.90
11784;DHT22;5949;40.386;18.150;2022-08-21T02:21:57;24.90;99.90
11784;DHT22;5949;40.386;18.150;2022-08-21T02:24:24;24.80;99.90
11784;DHT22;5949;40.386;18.150;2022-08-21T02:26:52;24.80;99.90
11784;DHT22;5949;40.386;18.150;2022-08-21T02:29:19;24.80;99.90
11784;DHT22;5949;40.386;18.150;2022-08-21T02:31:48;24.60;99.90
11784;DHT22;5949;40.386;18.150;2022-08-21T02:34:16;24.70;99.90
11784;DHT22;5949;40.386;18.150;2022-08-21T02:36:43;24.80;99.90
11784;DHT22;5949;40.386;18.150;2022-08-21T02:39:11;24.80;99.90
11784;DHT22;5949;40.386;18.150;2022-08-21T02:41:39;24.80;99.90
11784;DHT22;5949;40.386;18.150;2022-08-21T02:44:06;24.80;99.90
11784;DHT22;5949;40.386;18.150;2022-08-21T02:46:34;24.90;99.90
11784;DHT22;5949;40.386;18.150;2022-08-21T02:49:03;24.80;99.90
11784;DHT22;5949;40.386;18.150;2022-08-21T02:51:30;24.80;99.90
11784;DHT22;5949;40.386;18.150;2022-08-21T02:53:58;24.80;99.90
11784;DHT22;5949;40.386;18.150;2022-08-21T02:56:25;24.80;99.90
11784;DHT22;5949;40.386;18.150;2022-08-21T02:58:53;24.80;99.90
11784;DHT22;5949;40.386;18.150;2022-08-21T03:01:20;24.80;99.90
11784;DHT22;5949;40.386;18.150;2022-08-21T03:03:48;24.90;99.90
11784;DHT22;5949;40.386;18.150;2022-08-21T03:06:20;25.10;99.90
11784;DHT22;5949;40.386;18.150;2022-08-21T03:08:48;25.00;99.90
11784;DHT22;5949;40.386;18.150;2022-08-21T03:11:16;24.90;99.90
11784;DHT22;5949;40.386;18.150;2022-08-21T03:13:46;24.80;99.90
11784;DHT22;5949;40.386;18.150;2022-08-21T03:16:14;24.60;99.90
11784;DHT22;5949;40.386;18.150;2022-08-21T03:18:41;24.80;99.90
11784;DHT22;5949;40.386;18.150;2022-08-21T03:21:09;24.50;99.90
11784;DHT22;5949;40.386;18.150;2022-08-21T03:23:39;24.70;99.90
11784;DHT22;5949;40.386;18.150;2022-08-21T03:26:08;24.60;99.90
11784;DHT22;5949;40.386;18.150;2022-08-21T03:28:36;24.60;99.90
11784;DHT22;5949;40.386;18.150;2022-08-21T03:31:04;24.70;99.90
11784;DHT22;5949;40.386;18.150;2022-08-21T03:33:32;24.60;99.90
11784;DHT22;5949;40.386;18.150;2022-08-21T03:36:01;24.90;99.90
11784;DHT22;5949;40.386;18.150;2022-08-21T03:38:30;25.10;99.90
11784;DHT22;5949;40.386;18.150;2022-08-21T03:41:00;25.10;99.90
11784;DHT22;5949;40.386;18.150;2022-08-21T03:43:28;25.20;99.90
11784;DHT22;5949;40.386;18.150;2022-08-21T03:45:56;25.20;99.90
11784;DHT22;5949;40.386;18.150;2022-08-21T03:48:24;25.30;99.90
11784;DHT22;5949;40.386;18.150;2022-08-21T03:50:52;25.20;99.90
11784;DHT22;5949;40.386;18.150;2022-08-21T03:53:20;25.30;99.90
11784;DHT22;5949;40.386;18.150;2022-08-21T03:55:49;25.20;99.90
11784;DHT22;5949;40.386;18.150;2022-08-21T03:58:21;24.90;99.90
11784;DHT22;5949;40.386;18.150;2022-08-21T04:00:51;24.40;99.90
11784;DHT22;5949;40.386;18.150;2022-08-21T04:03:19;24.40;99.90
11784;DHT22;5949;40.386;18.150;2022-08-21T04:05:47;24.40;99.90
11784;DHT22;5949;40.386;18.150;2022-08-21T04:08:16;24.30;99.90
11784;DHT22;5949;40.386;18.150;2022-08-21T04:10:46;24.20;99.90
11784;DHT22;5949;40.386;18.150;2022-08-21T04:13:14;24.40;99.90
11784;DHT22;5949;40.386;18.150;2022-08-21T04:15:43;24.10;99.90
11784;DHT22;5949;40.386;18.150;2022-08-21T04:18:11;24.10;99.90
11784;DHT22;5949;40.386;18.150;2022-08-21T04:20:39;24.20;99.90
11784;DHT22;5949;40.386;18.150;2022-08-21T04:23:08;24.10;99.90
11784;DHT22;5949;40.386;18.150;2022-08-21T04:25:35;23.90;99.90
11784;DHT22;5949;40.386;18.150;2022-08-21T04:28:03;23.90;99.90
11784;DHT22;5949;40.386;18.150;2022-08-21T04:30:31;23.90;99.90
11784;DHT22;5949;40.386;18.150;2022-08-21T04:33:00;24.10;99.90
11784;DHT22;5949;40.386;18.150;2022-08-21T04:35:30;24.30;99.90
11784;DHT22;5949;40.386;18.150;2022-08-21T04:37:58;24.20;99.90
11784;DHT22;5949;40.386;18.150;2022-08-21T04:40:26;24.30;99.90
11784;DHT22;5949;40.386;18.150;2022-08-21T04:42:56;24.40;99.90
11784;DHT22;5949;40.386;18.150;2022-08-21T04:45:28;24.40;99.90
11784;DHT22;5949;40.386;18.150;2022-08-21T04:47:58;24.50;99.90
11784;DHT22;5949;40.386;18.150;2022-08-21T04:50:29;24.40;99.90
11784;DHT22;5949;40.386;18.150;2022-08-21T04:53:00;24.20;99.90
11784;DHT22;5949;40.386;18.150;2022-08-21T04:55:28;24.20;99.90
11784;DHT22;5949;40.386;18.150;2022-08-21T04:57:56;24.20;99.90
11784;DHT22;5949;40.386;18.150;2022-08-21T05:00:24;24.30;99.90
11784;DHT22;5949;40.386;18.150;2022-08-21T05:02:53;24.40;99.90
11784;DHT22;5949;40.386;18.150;2022-08-21T05:05:22;24.50;99.90
11784;DHT22;5949;40.386;18.150;2022-08-21T05:07:52;24.40;99.90
11784;DHT22;5949;40.386;18.150;2022-08-21T05:10:20;24.40;99.90
11784;DHT22;5949;40.386;18.150;2022-08-21T05:12:49;24.50;99.90
11784;DHT22;5949;40.386;18.150;2022-08-21T05:15:16;24.60;99.90
11784;DHT22;5949;40.386;18.150;2022-08-21T05:17:44;24.80;99.90
11784;DHT22;5949;40.386;18.150;2022-08-21T05:20:13;24.70;99.90
11784;DHT22;5949;40.386;18.150;2022-08-21T05:22:41;24.80;99.90
11784;DHT22;5949;40.386;18.150;2022-08-21T05:25:11;25.00;99.90
11784;DHT22;5949;40.386;18.150;2022-08-21T05:27:38;25.10;99.90
11784;DHT22;5949;40.386;18.150;2022-08-21T05:30:08;25.30;99.90
11784;DHT22;5949;40.386;18.150;2022-08-21T05:32:36;25.40;99.90
11784;DHT22;5949;40.386;18.150;2022-08-21T05:35:05;25.70;99.90
11784;DHT22;5949;40.386;18.150;2022-08-21T05:37:33;25.80;99.90
11784;DHT22;5949;40.386;18.150;2022-08-21T05:40:02;26.00;99.90
11784;DHT22;5949;40.386;18.150;2022-08-21T05:42:32;26.20;99.90
11784;DHT22;5949;40.386;18.150;2022-08-21T05:44:59;26.40;99.90
11784;DHT22;5949;40.386;18.150;2022-08-21T05:47:27;26.60;99.90
11784;DHT22;5949;40.386;18.150;2022-08-21T05:49:54;26.90;99.90
11784;DHT22;5949;40.386;18.150;2022-08-21T05:52:22;27.10;99.90
11784;DHT22;5949;40.386;18.150;2022-08-21T05:54:49;27.00;99.90
11784;DHT22;5949;40.386;18.150;2022-08-21T05:57:20;27.20;99.90
11784;DHT22;5949;40.386;18.150;2022-08-21T05:59:49;27.80;99.90
11784;DHT22;5949;40.386;18.150;2022-08-21T06:02:17;27.80;99.90
11784;DHT22;5949;40.386;18.150;2022-08-21T06:04:45;28.10;99.90
11784;DHT22;5949;40.386;18.150;2022-08-21T06:07:13;28.20;99.90
11784;DHT22;5949;40.386;18.150;2022-08-21T06:09:40;28.20;99.90
11784;DHT22;5949;40.386;18.150;2022-08-21T06:12:11;28.20;99.90
11784;DHT22;5949;40.386;18.150;2022-08-21T06:14:40;28.40;99.90
11784;DHT22;5949;40.386;18.150;2022-08-21T06:17:11;28.40;99.90
11784;DHT22;5949;40.386;18.150;2022-08-21T06:19:40;28.80;99.90
11784;DHT22;5949;40.386;18.150;2022-08-21T06:22:08;28.80;99.90
11784;DHT22;5949;40.386;18.150;2022-08-21T06:24:36;28.70;99.90
11784;DHT22;5949;40.386;18.150;2022-08-21T06:27:05;28.70;99.90
11784;DHT22;5949;40.386;18.150;2022-08-21T06:29:33;28.70;99.90
11784;DHT22;5949;40.386;18.150;2022-08-21T06:32:01;28.80;99.90
11784;DHT22;5949;40.386;18.150;2022-08-21T06:34:31;29.10;99.90
11784;DHT22;5949;40.386;18.150;2022-08-21T06:36:58;29.30;99.90
11784;DHT22;5949;40.386;18.150;2022-08-21T06:39:26;29.30;99.90
11784;DHT22;5949;40.386;18.150;2022-08-21T06:41:53;29.10;99.90
11784;DHT22;5949;40.386;18.150;2022-08-21T06:44:21;29.30;99.90
11784;DHT22;5949;40.386;18.150;2022-08-21T06:46:49;29.40;99.90
11784;DHT22;5949;40.386;18.150;2022-08-21T06:49:16;29.40;99.90
11784;DHT22;5949;40.386;18.150;2022-08-21T06:51:45;29.50;99.90
11784;DHT22;5949;40.386;18.150;2022-08-21T06:54:13;29.50;99.90
11784;DHT22;5949;40.386;18.150;2022-08-21T06:56:41;29.40;99.90
11784;DHT22;5949;40.386;18.150;2022-08-21T06:59:08;29.30;99.90
11784;DHT22;5949;40.386;18.150;2022-08-21T07:01:36;29.10;99.90
11784;DHT22;5949;40.386;18.150;2022-08-21T07:04:03;29.40;99.90
11784;DHT22;5949;40.386;18.150;2022-08-21T07:06:31;29.60;99.90
11784;DHT22;5949;40.386;18.150;2022-08-21T07:09:00;29.00;99.90
11784;DHT22;5949;40.386;18.150;2022-08-21T07:11:28;29.30;99.90
11784;DHT22;5949;40.386;18.150;2022-08-21T07:13:56;29.60;99.90
11784;DHT22;5949;40.386;18.150;2022-08-21T07:16:24;30.10;99.90
11784;DHT22;5949;40.386;18.150;2022-08-21T07:18:52;29.70;99.90
11784;DHT22;5949;40.386;18.150;2022-08-21T07:21:19;30.20;99.90
11784;DHT22;5949;40.386;18.150;2022-08-21T07:23:49;30.30;99.90
11784;DHT22;5949;40.386;18.150;2022-08-21T07:26:21;30.60;99.90
11784;DHT22;5949;40.386;18.150;2022-08-21T07:28:50;30.20;99.90
11784;DHT22;5949;40.386;18.150;2022-08-21T07:31:24;30.80;99.90
11784;DHT22;5949;40.386;18.150;2022-08-21T07:33:52;30.30;99.90
11784;DHT22;5949;40.386;18.150;2022-08-21T07:36:20;29.90;99.90
11784;DHT22;5949;40.386;18.150;2022-08-21T07:38:47;30.20;99.90
11784;DHT22;5949;40.386;18.150;2022-08-21T07:41:20;30.30;99.90
11784;DHT22;5949;40.386;18.150;2022-08-21T07:43:47;30.60;99.90
11784;DHT22;5949;40.386;18.150;2022-08-21T07:46:15;30.60;99.90
11784;DHT22;5949;40.386;18.150;2022-08-21T07:48:43;30.60;99.90
11784;DHT22;5949;40.386;18.150;2022-08-21T07:51:12;30.70;99.90
11784;DHT22;5949;40.386;18.150;2022-08-21T07:53:40;30.30;99.90
11784;DHT22;5949;40.386;18.150;2022-08-21T07:56:08;30.50;99.90
11784;DHT22;5949;40.386;18.150;2022-08-21T07:58:38;30.30;99.90
11784;DHT22;5949;40.386;18.150;2022-08-21T08:01:06;30.10;99.90
11784;DHT22;5949;40.386;18.150;2022-08-21T08:03:34;30.60;99.90
11784;DHT22;5949;40.386;18.150;2022-08-21T08:06:02;30.80;99.90
11784;DHT22;5949;40.386;18.150;2022-08-21T08:08:30;30.40;99.90
11784;DHT22;5949;40.386;18.150;2022-08-21T08:10:59;30.20;99.90
11784;DHT22;5949;40.386;18.150;2022-08-21T08:13:27;29.80;99.90
11784;DHT22;5949;40.386;18.150;2022-08-21T08:15:56;30.10;99.90
11784;DHT22;5949;40.386;18.150;2022-08-21T08:18:24;30.70;99.90
11784;DHT22;5949;40.386;18.150;2022-08-21T08:20:51;30.00;99.90
11784;DHT22;5949;40.386;18.150;2022-08-21T08:23:19;29.60;99.90
11784;DHT22;5949;40.386;18.150;2022-08-21T08:25:47;29.10;99.90
11784;DHT22;5949;40.386;18.150;2022-08-21T08:28:14;29.10;99.90
11784;DHT22;5949;40.386;18.150;2022-08-21T08:30:42;29.50;99.90
11784;DHT22;5949;40.386;18.150;2022-08-21T08:33:11;29.00;99.90
11784;DHT22;5949;40.386;18.150;2022-08-21T08:35:38;29.60;99.90
11784;DHT22;5949;40.386;18.150;2022-08-21T08:38:06;30.20;99.90
11784;DHT22;5949;40.386;18.150;2022-08-21T08:40:38;30.00;99.90
11784;DHT22;5949;40.386;18.150;2022-08-21T08:43:07;29.60;99.90
11784;DHT22;5949;40.386;18.150;2022-08-21T08:45:38;29.30;99.90
11784;DHT22;5949;40.386;18.150;2022-08-21T08:48:11;29.10;99.90
11784;DHT22;5949;40.386;18.150;2022-08-21T08:50:43;29.90;99.90
11784;DHT22;5949;40.386;18.150;2022-08-21T08:53:15;30.10;99.90
11784;DHT22;5949;40.386;18.150;2022-08-21T08:55:45;29.80;99.90
11784;DHT22;5949;40.386;18.150;2022-08-21T08:58:19;29.40;99.90
11784;DHT22;5949;40.386;18.150;2022-08-21T09:00:50;29.30;99.90
11784;DHT22;5949;40.386;18.150;2022-08-21T09:03:21;29.50;99.90
11784;DHT22;5949;40.386;18.150;2022-08-21T09:05:56;28.90;99.90
11784;DHT22;5949;40.386;18.150;2022-08-21T09:08:41;28.90;99.90
11784;DHT22;5949;40.386;18.150;2022-08-21T09:11:22;29.50;99.90
11784;DHT22;5949;40.386;18.150;2022-08-21T09:14:00;30.00;99.90
11784;DHT22;5949;40.386;18.150;2022-08-21T09:16:47;30.20;99.90
11784;DHT22;5949;40.386;18.150;2022-08-21T09:19:27;30.50;99.90
11784;DHT22;5949;40.386;18.150;2022-08-21T09:22:03;30.80;99.90
11784;DHT22;5949;40.386;18.150;2022-08-21T09:24:42;30.90;99.90
11784;DHT22;5949;40.386;18.150;2022-08-21T09:27:14;31.00;99.90
11784;DHT22;5949;40.386;18.150;2022-08-21T09:29:45;30.60;99.90
11784;DHT22;5949;40.386;18.150;2022-08-21T09:32:16;30.00;99.90
11784;DHT22;5949;40.386;18.150;2022-08-21T09:34:57;30.30;99.90
11784;DHT22;5949;40.386;18.150;2022-08-21T09:37:26;29.90;99.90
11784;DHT22;5949;40.386;18.150;2022-08-21T09:39:55;30.60;99.90
11784;DHT22;5949;40.386;18.150;2022-08-21T09:42:25;30.20;99.90
11784;DHT22;5949;40.386;18.150;2022-08-21T09:45:07;30.40;99.90
11784;DHT22;5949;40.386;18.150;2022-08-21T09:47:36;30.40;99.90
11784;DHT22;5949;40.386;18.150;2022-08-21T09:50:14;30.60;99.90
11784;DHT22;5949;40.386;18.150;2022-08-21T09:52:45;30.60;99.90
11784;DHT22;5949;40.386;18.150;2022-08-21T09:55:20;30.60;99.90
11784;DHT22;5949;40.386;18.150;2022-08-21T09:58:06;30.20;99.90
11784;DHT22;5949;40.386;18.150;2022-08-21T10:00:35;30.70;99.90
11784;DHT22;5949;40.386;18.150;2022-08-21T10:03:12;30.80;99.90
11784;DHT22;5949;40.386;18.150;2022-08-21T10:05:51;30.80;99.90
11784;DHT22;5949;40.386;18.150;2022-08-21T10:08:20;30.70;99.90
11784;DHT22;5949;40.386;18.150;2022-08-21T10:10:51;31.20;99.90
11784;DHT22;5949;40.386;18.150;2022-08-21T10:13:26;30.80;99.90
11784;DHT22;5949;40.386;18.150;2022-08-21T10:16:02;30.80;99.90
11784;DHT22;5949;40.386;18.150;2022-08-21T10:18:37;30.80;99.90
11784;DHT22;5949;40.386;18.150;2022-08-21T10:21:16;31.00;99.90
11784;DHT22;5949;40.386;18.150;2022-08-21T10:24:04;31.20;99.90
11784;DHT22;5949;40.386;18.150;2022-08-21T10:26:45;31.00;99.90
11784;DHT22;5949;40.386;18.150;2022-08-21T10:29:28;30.60;99.90
11784;DHT22;5949;40.386;18.150;2022-08-21T10:32:05;30.90;99.90
11784;DHT22;5949;40.386;18.150;2022-08-21T10:34:43;30.60;99.50
11784;DHT22;5949;40.386;18.150;2022-08-21T10:37:23;30.90;99.00
11784;DHT22;5949;40.386;18.150;2022-08-21T10:40:02;30.90;99.90
11784;DHT22;5949;40.386;18.150;2022-08-21T10:42:41;30.80;99.90
11784;DHT22;5949;40.386;18.150;2022-08-21T10:45:18;30.90;99.90
11784;DHT22;5949;40.386;18.150;2022-08-21T10:47:54;31.10;99.90
11784;DHT22;5949;40.386;18.150;2022-08-21T10:50:30;31.10;99.90
11784;DHT22;5949;40.386;18.150;2022-08-21T10:53:28;31.20;99.90
11784;DHT22;5949;40.386;18.150;2022-08-21T10:56:02;30.40;99.90
11784;DHT22;5949;40.386;18.150;2022-08-21T10:58:36;30.60;99.90
11784;DHT22;5949;40.386;18.150;2022-08-21T11:01:08;30.70;99.90
11784;DHT22;5949;40.386;18.150;2022-08-21T11:03:42;30.90;99.90
11784;DHT22;5949;40.386;18.150;2022-08-21T11:06:14;30.90;99.90
11784;DHT22;5949;40.386;18.150;2022-08-21T11:08:46;30.70;99.90
11784;DHT22;5949;40.386;18.150;2022-08-21T11:11:20;30.40;99.90
11784;DHT22;5949;40.386;18.150;2022-08-21T11:13:53;30.70;98.60
11784;DHT22;5949;40.386;18.150;2022-08-21T11:16:25;30.90;99.90
11784;DHT22;5949;40.386;18.150;2022-08-21T11:18:57;30.90;96.20
11784;DHT22;5949;40.386;18.150;2022-08-21T11:21:35;30.70;99.70
11784;DHT22;5949;40.386;18.150;2022-08-21T11:24:17;30.60;99.60
11784;DHT22;5949;40.386;18.150;2022-08-21T11:26:51;30.40;98.80
11784;DHT22;5949;40.386;18.150;2022-08-21T11:29:26;30.60;96.40
11784;DHT22;5949;40.386;18.150;2022-08-21T11:32:06;30.50;96.20
11784;DHT22;5949;40.386;18.150;2022-08-21T11:34:47;30.60;96.80
11784;DHT22;5949;40.386;18.150;2022-08-21T11:37:31;30.60;95.50
11784;DHT22;5949;40.386;18.150;2022-08-21T11:40:11;30.80;96.50
11784;DHT22;5949;40.386;18.150;2022-08-21T11:42:49;30.70;95.50
11784;DHT22;5949;40.386;18.150;2022-08-21T11:45:24;30.90;93.50
11784;DHT22;5949;40.386;18.150;2022-08-21T11:48:00;30.60;92.60
11784;DHT22;5949;40.386;18.150;2022-08-21T11:50:31;30.60;94.10
11784;DHT22;5949;40.386;18.150;2022-08-21T11:53:03;30.90;93.40
11784;DHT22;5949;40.386;18.150;2022-08-21T11:55:36;30.80;92.90
11784;DHT22;5949;40.386;18.150;2022-08-21T11:58:09;30.80;92.70
11784;DHT22;5949;40.386;18.150;2022-08-21T12:00:42;30.60;93.00
11784;DHT22;5949;40.386;18.150;2022-08-21T12:03:14;30.30;93.90
11784;DHT22;5949;40.386;18.150;2022-08-21T12:05:52;30.30;95.00
11784;DHT22;5949;40.386;18.150;2022-08-21T12:08:28;30.80;95.50
11784;DHT22;5949;40.386;18.150;2022-08-21T12:11:03;30.90;95.20
11784;DHT22;5949;40.386;18.150;2022-08-21T12:13:33;30.60;94.40
11784;DHT22;5949;40.386;18.150;2022-08-21T12:16:12;30.30;93.20
11784;DHT22;5949;40.386;18.150;2022-08-21T12:18:41;30.40;95.30
11784;DHT22;5949;40.386;18.150;2022-08-21T12:21:21;30.50;94.70
11784;DHT22;5949;40.386;18.150;2022-08-21T12:24:00;30.60;93.90
11784;DHT22;5949;40.386;18.150;2022-08-21T12:26:32;30.70;95.00
11784;DHT22;5949;40.386;18.150;2022-08-21T12:29:15;30.60;96.10
11784;DHT22;5949;40.386;18.150;2022-08-21T12:31:59;30.80;94.50
11784;DHT22;5949;40.386;18.150;2022-08-21T12:34:33;30.80;93.50
11784;DHT22;5949;40.386;18.150;2022-08-21T12:37:03;30.70;93.20
11784;DHT22;5949;40.386;18.150;2022-08-21T12:39:33;30.70;92.70
11784;DHT22;5949;40.386;18.150;2022-08-21T12:42:06;30.50;93.30
11784;DHT22;5949;40.386;18.150;2022-08-21T12:44:43;30.60;93.00
11784;DHT22;5949;40.386;18.150;2022-08-21T12:47:17;30.70;93.10
11784;DHT22;5949;40.386;18.150;2022-08-21T12:49:52;30.50;94.70
11784;DHT22;5949;40.386;18.150;2022-08-21T12:52:24;30.30;96.90
11784;DHT22;5949;40.386;18.150;2022-08-21T12:54:52;30.30;95.70
11784;DHT22;5949;40.386;18.150;2022-08-21T12:57:23;30.30;99.20
11784;DHT22;5949;40.386;18.150;2022-08-21T12:59:55;30.20;99.90
11784;DHT22;5949;40.386;18.150;2022-08-21T13:02:26;30.40;96.80
11784;DHT22;5949;40.386;18.150;2022-08-21T13:04:56;30.50;96.10
11784;DHT22;5949;40.386;18.150;2022-08-21T13:07:28;30.30;98.40
11784;DHT22;5949;40.386;18.150;2022-08-21T13:10:02;30.50;97.20
11784;DHT22;5949;40.386;18.150;2022-08-21T13:12:31;30.40;98.80
11784;DHT22;5949;40.386;18.150;2022-08-21T13:15:03;30.30;99.20
11784;DHT22;5949;40.386;18.150;2022-08-21T13:17:34;30.50;95.20
11784;DHT22;5949;40.386;18.150;2022-08-21T13:20:06;30.60;93.70
11784;DHT22;5949;40.386;18.150;2022-08-21T13:22:41;30.70;95.00
11784;DHT22;5949;40.386;18.150;2022-08-21T13:25:10;30.60;94.30
11784;DHT22;5949;40.386;18.150;2022-08-21T13:27:40;30.60;96.00
11784;DHT22;5949;40.386;18.150;2022-08-21T13:30:11;30.30;97.50
11784;DHT22;5949;40.386;18.150;2022-08-21T13:32:42;30.20;97.70
11784;DHT22;5949;40.386;18.150;2022-08-21T13:35:16;30.20;97.50
11784;DHT22;5949;40.386;18.150;2022-08-21T13:37:47;30.50;95.70
11784;DHT22;5949;40.386;18.150;2022-08-21T13:40:17;30.20;96.50
11784;DHT22;5949;40.386;18.150;2022-08-21T13:42:47;30.40;95.80
11784;DHT22;5949;40.386;18.150;2022-08-21T13:45:22;30.30;93.50
11784;DHT22;5949;40.386;18.150;2022-08-21T13:47:51;30.50;95.00
11784;DHT22;5949;40.386;18.150;2022-08-21T13:50:22;30.50;96.90
11784;DHT22;5949;40.386;18.150;2022-08-21T13:52:57;30.30;98.40
11784;DHT22;5949;40.386;18.150;2022-08-21T13:55:26;30.30;97.20
11784;DHT22;5949;40.386;18.150;2022-08-21T13:58:03;30.20;96.50
11784;DHT22;5949;40.386;18.150;2022-08-21T14:00:33;30.20;97.30
11784;DHT22;5949;40.386;18.150;2022-08-21T14:03:04;30.10;96.60
11784;DHT22;5949;40.386;18.150;2022-08-21T14:05:35;30.20;97.40
11784;DHT22;5949;40.386;18.150;2022-08-21T14:08:08;30.30;96.70
11784;DHT22;5949;40.386;18.150;2022-08-21T14:10:44;30.20;94.70
11784;DHT22;5949;40.386;18.150;2022-08-21T14:13:29;30.00;95.60
11784;DHT22;5949;40.386;18.150;2022-08-21T14:15:58;30.10;95.10
11784;DHT22;5949;40.386;18.150;2022-08-21T14:18:27;30.20;97.90
11784;DHT22;5949;40.386;18.150;2022-08-21T14:21:04;30.20;98.00
11784;DHT22;5949;40.386;18.150;2022-08-21T14:23:32;30.20;95.60
11784;DHT22;5949;40.386;18.150;2022-08-21T14:26:02;30.30;93.80
11784;DHT22;5949;40.386;18.150;2022-08-21T14:28:33;30.10;93.80
11784;DHT22;5949;40.386;18.150;2022-08-21T14:31:12;30.20;93.70
11784;DHT22;5949;40.386;18.150;2022-08-21T14:33:40;29.90;93.10
11784;DHT22;5949;40.386;18.150;2022-08-21T14:36:08;30.20;94.10
11784;DHT22;5949;40.386;18.150;2022-08-21T14:38:38;30.30;93.50
11784;DHT22;5949;40.386;18.150;2022-08-21T14:41:15;30.10;92.30
11784;DHT22;5949;40.386;18.150;2022-08-21T14:43:45;30.10;91.00
11784;DHT22;5949;40.386;18.150;2022-08-21T14:46:19;29.80;92.60
11784;DHT22;5949;40.386;18.150;2022-08-21T14:48:47;30.00;92.90
11784;DHT22;5949;40.386;18.150;2022-08-21T14:51:15;30.00;93.10
11784;DHT22;5949;40.386;18.150;2022-08-21T14:53:43;29.90;93.50
11784;DHT22;5949;40.386;18.150;2022-08-21T14:56:11;29.70;93.80
11784;DHT22;5949;40.386;18.150;2022-08-21T14:58:41;29.80;93.50
11784;DHT22;5949;40.386;18.150;2022-08-21T15:01:12;29.90;93.50
11784;DHT22;5949;40.386;18.150;2022-08-21T15:03:40;29.90;94.40
11784;DHT22;5949;40.386;18.150;2022-08-21T15:06:08;29.70;94.50
11784;DHT22;5949;40.386;18.150;2022-08-21T15:08:36;29.70;94.90
11784;DHT22;5949;40.386;18.150;2022-08-21T15:11:06;29.60;95.20
11784;DHT22;5949;40.386;18.150;2022-08-21T15:13:34;29.60;94.70
11784;DHT22;5949;40.386;18.150;2022-08-21T15:16:03;29.40;95.80
11784;DHT22;5949;40.386;18.150;2022-08-21T15:18:32;29.40;97.30
11784;DHT22;5949;40.386;18.150;2022-08-21T15:20:59;29.30;99.60
11784;DHT22;5949;40.386;18.150;2022-08-21T15:23:27;29.20;99.90
11784;DHT22;5949;40.386;18.150;2022-08-21T15:25:55;29.20;99.90
11784;DHT22;5949;40.386;18.150;2022-08-21T15:28:24;29.20;99.90
11784;DHT22;5949;40.386;18.150;2022-08-21T15:30:51;29.20;99.90
11784;DHT22;5949;40.386;18.150;2022-08-21T15:33:19;29.10;99.90
11784;DHT22;5949;40.386;18.150;2022-08-21T15:35:48;29.20;99.90
11784;DHT22;5949;40.386;18.150;2022-08-21T15:38:16;28.90;99.90
11784;DHT22;5949;40.386;18.150;2022-08-21T15:40:44;28.90;99.90
11784;DHT22;5949;40.386;18.150;2022-08-21T15:43:20;28.90;99.90
11784;DHT22;5949;40.386;18.150;2022-08-21T15:45:49;28.90;99.90
11784;DHT22;5949;40.386;18.150;2022-08-21T15:48:17;28.70;99.90
11784;DHT22;5949;40.386;18.150;2022-08-21T15:50:44;28.80;99.90